createdAt,value
2023-04-27T00:00:00.000Z,76.17
2023-04-27T00:15:00.000Z,76.34
2023-04-27T00:30:00.000Z,76.68
2023-04-27T00:45:00.000Z,76.13
2023-04-27T01:00:00.000Z,76.25
2023-04-27T01:15:00.000Z,76.63
2023-04-27T01:30:00.000Z,76.29
2023-04-27T01:45:00.000Z,77.18
2023-04-27T02:00:00.000Z,77.8
2023-04-27T02:15:00.000Z,76.98
2023-04-27T02:30:00.000Z,76.73
2023-04-27T02:45:00.000Z,77.24
2023-04-27T03:00:00.000Z,77.2
2023-04-27T03:15:00.000Z,77.6
2023-04-27T03:30:00.000Z,78.24
2023-04-27T03:45:00.000Z,77.76
2023-04-27T04:00:00.000Z,78.56
2023-04-27T04:15:00.000Z,78.88
2023-04-27T04:30:00.000Z,79.55
2023-04-27T04:45:00.000Z,79.15
2023-04-27T05:00:00.000Z,78.29
2023-04-27T05:15:00.000Z,76.85
2023-04-27T05:30:00.000Z,75.31
2023-04-27T05:45:00.000Z,73.49
2023-04-27T06:00:00.000Z,71.54
2023-04-27T06:15:00.000Z,71.65
2023-04-27T06:30:00.000Z,70.25
2023-04-27T06:45:00.000Z,66.06
2023-04-27T07:00:00.000Z,63.96
2023-04-27T07:15:00.000Z,59
2023-04-27T07:30:00.000Z,54.5
2023-04-27T07:45:00.000Z,55.77
2023-04-27T08:00:00.000Z,57.24
2023-04-27T08:15:00.000Z,55.06
2023-04-27T08:30:00.000Z,54.96
2023-04-27T08:45:00.000Z,47.81
2023-04-27T09:00:00.000Z,41.41
2023-04-27T09:15:00.000Z,41.89
2023-04-27T09:30:00.000Z,39.33
2023-04-27T09:45:00.000Z,40.44
2023-04-27T10:00:00.000Z,41.55
2023-04-27T10:15:00.000Z,42.38
2023-04-27T10:30:00.000Z,41.08
2023-04-27T10:45:00.000Z,40.42
2023-04-27T11:00:00.000Z,42.82
2023-04-27T11:15:00.000Z,43.86
2023-04-27T11:30:00.000Z,43.18
2023-04-27T11:45:00.000Z,41.7
2023-04-27T12:00:00.000Z,42.18
2023-04-27T12:15:00.000Z,43.09
2023-04-27T12:30:00.000Z,43.14
2023-04-27T12:45:00.000Z,42.46
2023-04-27T13:00:00.000Z,42.34
2023-04-27T13:15:00.000Z,42.53
2023-04-27T13:30:00.000Z,42.28
2023-04-27T13:45:00.000Z,43
2023-04-27T14:00:00.000Z,42.32
2023-04-27T14:15:00.000Z,43.24
2023-04-27T14:30:00.000Z,44.15
2023-04-27T14:45:00.000Z,44.61
2023-04-27T15:00:00.000Z,44.58
2023-04-27T15:15:00.000Z,44.81
2023-04-27T15:30:00.000Z,45.08
2023-04-27T15:45:00.000Z,44.94
2023-04-27T16:00:00.000Z,45.34
2023-04-27T16:15:00.000Z,45.82
2023-04-27T16:30:00.000Z,47.09
2023-04-27T16:45:00.000Z,47.08
2023-04-27T17:00:00.000Z,47.86
2023-04-27T17:15:00.000Z,48.73
2023-04-27T17:30:00.000Z,49.76
2023-04-27T17:45:00.000Z,51.36
2023-04-27T18:00:00.000Z,53.64
2023-04-27T18:15:00.000Z,54.2
2023-04-27T18:30:00.000Z,56.3
2023-04-27T18:45:00.000Z,56.81
2023-04-27T19:00:00.000Z,59.01
2023-04-27T19:15:00.000Z,61.6
2023-04-27T19:30:00.000Z,63.55
2023-04-27T19:45:00.000Z,64.26
2023-04-27T20:00:00.000Z,64.33
2023-04-27T20:15:00.000Z,65.33
2023-04-27T20:30:00.000Z,66.53
2023-04-27T20:45:00.000Z,68.01
2023-04-27T21:00:00.000Z,69.17
2023-04-27T21:15:00.000Z,70.12
2023-04-27T21:30:00.000Z,69.63
2023-04-27T21:45:00.000Z,69.64
2023-04-27T22:00:00.000Z,69.77
2023-04-27T22:15:00.000Z,70
2023-04-27T22:30:00.000Z,71.27
2023-04-27T22:45:00.000Z,72.34
2023-04-27T23:00:00.000Z,73.44
2023-04-27T23:15:00.000Z,74.43
2023-04-27T23:30:00.000Z,74.7
2023-04-27T23:45:00.000Z,74.96
